sensor_id;sensor_type;location;lat;lon;timestamp;P1;durP1;ratioP1;P2;durP2;ratioP2
4786;SDS011;62338;48.832;9.422;2022-08-27T00:01:56;47.60;;;27.37;;
4786;SDS011;62338;48.832;9.422;2022-08-27T00:03:58;42.50;;;26.10;;
4786;SDS011;62338;48.832;9.422;2022-08-27T00:06:01;42.17;;;26.17;;
4786;SDS011;62338;48.832;9.422;2022-08-27T00:08:07;52.00;;;29.27;;
4786;SDS011;62338;48.832;9.422;2022-08-27T00:10:13;47.17;;;29.37;;
4786;SDS011;62338;48.832;9.422;2022-08-27T00:12:18;52.33;;;30.53;;
4786;SDS011;62338;48.832;9.422;2022-08-27T00:14:21;58.77;;;31.73;;
4786;SDS011;62338;48.832;9.422;2022-08-27T00:16:23;51.93;;;31.73;;
4786;SDS011;62338;48.832;9.422;2022-08-27T00:18:25;63.03;;;35.23;;
4786;SDS011;62338;48.832;9.422;2022-08-27T00:20:27;53.70;;;34.13;;
4786;SDS011;62338;48.832;9.422;2022-08-27T00:22:29;59.30;;;35.93;;
4786;SDS011;62338;48.832;9.422;2022-08-27T00:24:31;66.73;;;37.60;;
4786;SDS011;62338;48.832;9.422;2022-08-27T00:26:34;56.97;;;35.07;;
4786;SDS011;62338;48.832;9.422;2022-08-27T00:28:40;73.97;;;38.63;;
4786;SDS011;62338;48.832;9.422;2022-08-27T00:30:42;83.37;;;41.30;;
4786;SDS011;62338;48.832;9.422;2022-08-27T00:32:45;75.50;;;41.87;;
4786;SDS011;62338;48.832;9.422;2022-08-27T00:34:47;70.30;;;40.70;;
4786;SDS011;62338;48.832;9.422;2022-08-27T00:36:49;76.90;;;41.40;;
4786;SDS011;62338;48.832;9.422;2022-08-27T00:38:51;74.97;;;41.20;;
4786;SDS011;62338;48.832;9.422;2022-08-27T00:40:54;74.20;;;42.00;;
4786;SDS011;62338;48.832;9.422;2022-08-27T00:42:56;86.67;;;43.60;;
4786;SDS011;62338;48.832;9.422;2022-08-27T00:44:58;74.63;;;41.30;;
4786;SDS011;62338;48.832;9.422;2022-08-27T00:47:02;75.77;;;41.70;;
4786;SDS011;62338;48.832;9.422;2022-08-27T00:49:09;68.63;;;39.53;;
4786;SDS011;62338;48.832;9.422;2022-08-27T00:51:17;79.87;;;42.20;;
4786;SDS011;62338;48.832;9.422;2022-08-27T00:53:22;78.00;;;43.07;;
4786;SDS011;62338;48.832;9.422;2022-08-27T00:55:27;74.43;;;40.50;;
4786;SDS011;62338;48.832;9.422;2022-08-27T00:57:37;81.03;;;43.70;;
4786;SDS011;62338;48.832;9.422;2022-08-27T00:59:42;75.40;;;41.27;;
4786;SDS011;62338;48.832;9.422;2022-08-27T01:01:46;83.60;;;44.43;;
4786;SDS011;62338;48.832;9.422;2022-08-27T01:04:06;101.63;;;48.57;;
4786;SDS011;62338;48.832;9.422;2022-08-27T01:06:09;91.20;;;49.70;;
4786;SDS011;62338;48.832;9.422;2022-08-27T01:08:17;92.23;;;48.93;;
4786;SDS011;62338;48.832;9.422;2022-08-27T01:10:23;98.37;;;49.50;;
4786;SDS011;62338;48.832;9.422;2022-08-27T01:12:27;109.60;;;50.90;;
4786;SDS011;62338;48.832;9.422;2022-08-27T01:14:31;110.47;;;51.57;;
4786;SDS011;62338;48.832;9.422;2022-08-27T01:16:36;102.03;;;54.10;;
4786;SDS011;62338;48.832;9.422;2022-08-27T01:18:41;107.03;;;54.30;;
4786;SDS011;62338;48.832;9.422;2022-08-27T01:20:50;105.60;;;51.47;;
4786;SDS011;62338;48.832;9.422;2022-08-27T01:23:07;102.27;;;50.17;;
4786;SDS011;62338;48.832;9.422;2022-08-27T01:25:16;95.50;;;50.67;;
4786;SDS011;62338;48.832;9.422;2022-08-27T01:27:20;100.27;;;52.10;;
4786;SDS011;62338;48.832;9.422;2022-08-27T01:29:25;114.50;;;53.77;;
4786;SDS011;62338;48.832;9.422;2022-08-27T01:31:27;103.40;;;53.90;;
4786;SDS011;62338;48.832;9.422;2022-08-27T01:33:29;99.07;;;53.40;;
4786;SDS011;62338;48.832;9.422;2022-08-27T01:35:31;97.17;;;53.70;;
4786;SDS011;62338;48.832;9.422;2022-08-27T01:37:36;107.87;;;56.07;;
4786;SDS011;62338;48.832;9.422;2022-08-27T01:39:39;90.27;;;51.60;;
4786;SDS011;62338;48.832;9.422;2022-08-27T01:41:44;103.03;;;52.40;;
4786;SDS011;62338;48.832;9.422;2022-08-27T01:43:52;113.83;;;52.93;;
4786;SDS011;62338;48.832;9.422;2022-08-27T01:45:55;114.23;;;57.30;;
4786;SDS011;62338;48.832;9.422;2022-08-27T01:47:57;104.40;;;54.13;;
4786;SDS011;62338;48.832;9.422;2022-08-27T01:50:01;92.10;;;49.73;;
4786;SDS011;62338;48.832;9.422;2022-08-27T01:52:06;109.83;;;54.37;;
4786;SDS011;62338;48.832;9.422;2022-08-27T01:54:08;98.87;;;53.87;;
4786;SDS011;62338;48.832;9.422;2022-08-27T01:56:10;105.33;;;54.97;;
4786;SDS011;62338;48.832;9.422;2022-08-27T01:58:13;101.67;;;55.87;;
4786;SDS011;62338;48.832;9.422;2022-08-27T02:00:20;115.53;;;55.50;;
4786;SDS011;62338;48.832;9.422;2022-08-27T02:02:24;105.73;;;54.97;;
4786;SDS011;62338;48.832;9.422;2022-08-27T02:04:27;107.53;;;54.80;;
4786;SDS011;62338;48.832;9.422;2022-08-27T02:06:29;99.53;;;53.33;;
4786;SDS011;62338;48.832;9.422;2022-08-27T02:08:31;95.27;;;51.73;;
4786;SDS011;62338;48.832;9.422;2022-08-27T02:10:36;98.00;;;52.77;;
4786;SDS011;62338;48.832;9.422;2022-08-27T02:12:39;107.70;;;54.70;;
4786;SDS011;62338;48.832;9.422;2022-08-27T02:14:41;96.80;;;51.73;;
4786;SDS011;62338;48.832;9.422;2022-08-27T02:16:44;95.63;;;50.23;;
4786;SDS011;62338;48.832;9.422;2022-08-27T02:18:53;95.93;;;51.50;;
4786;SDS011;62338;48.832;9.422;2022-08-27T02:20:56;90.47;;;50.50;;
4786;SDS011;62338;48.832;9.422;2022-08-27T02:22:58;84.73;;;49.47;;
4786;SDS011;62338;48.832;9.422;2022-08-27T02:25:00;92.80;;;48.40;;
4786;SDS011;62338;48.832;9.422;2022-08-27T02:27:02;86.93;;;48.50;;
4786;SDS011;62338;48.832;9.422;2022-08-27T02:29:05;88.80;;;48.47;;
4786;SDS011;62338;48.832;9.422;2022-08-27T02:31:08;86.97;;;48.30;;
4786;SDS011;62338;48.832;9.422;2022-08-27T02:33:10;87.30;;;48.97;;
4786;SDS011;62338;48.832;9.422;2022-08-27T02:35:15;72.20;;;43.53;;
4786;SDS011;62338;48.832;9.422;2022-08-27T02:37:18;74.90;;;46.40;;
4786;SDS011;62338;48.832;9.422;2022-08-27T02:39:20;74.57;;;44.70;;
4786;SDS011;62338;48.832;9.422;2022-08-27T02:41:22;83.30;;;48.50;;
4786;SDS011;62338;48.832;9.422;2022-08-27T02:43:24;72.53;;;43.50;;
4786;SDS011;62338;48.832;9.422;2022-08-27T02:45:28;72.80;;;43.60;;
4786;SDS011;62338;48.832;9.422;2022-08-27T02:47:31;76.23;;;42.97;;
4786;SDS011;62338;48.832;9.422;2022-08-27T02:49:34;76.63;;;42.80;;
4786;SDS011;62338;48.832;9.422;2022-08-27T02:51:37;76.10;;;42.53;;
4786;SDS011;62338;48.832;9.422;2022-08-27T02:53:40;73.67;;;44.50;;
4786;SDS011;62338;48.832;9.422;2022-08-27T02:55:46;66.33;;;42.33;;
4786;SDS011;62338;48.832;9.422;2022-08-27T02:57:49;70.43;;;44.23;;
4786;SDS011;62338;48.832;9.422;2022-08-27T02:59:51;75.43;;;44.40;;
4786;SDS011;62338;48.832;9.422;2022-08-27T03:01:54;80.37;;;45.80;;
4786;SDS011;62338;48.832;9.422;2022-08-27T03:03:56;90.13;;;45.60;;
4786;SDS011;62338;48.832;9.422;2022-08-27T03:05:57;78.70;;;45.13;;
4786;SDS011;62338;48.832;9.422;2022-08-27T03:08:00;80.73;;;46.97;;
4786;SDS011;62338;48.832;9.422;2022-08-27T03:10:04;78.47;;;47.47;;
4786;SDS011;62338;48.832;9.422;2022-08-27T03:12:06;82.90;;;49.20;;
4786;SDS011;62338;48.832;9.422;2022-08-27T03:14:09;94.63;;;49.70;;
4786;SDS011;62338;48.832;9.422;2022-08-27T03:16:11;85.23;;;48.50;;
4786;SDS011;62338;48.832;9.422;2022-08-27T03:18:13;98.63;;;50.63;;
4786;SDS011;62338;48.832;9.422;2022-08-27T03:20:18;89.50;;;48.30;;
4786;SDS011;62338;48.832;9.422;2022-08-27T03:22:20;81.13;;;46.77;;
4786;SDS011;62338;48.832;9.422;2022-08-27T03:24:22;82.67;;;48.00;;
4786;SDS011;62338;48.832;9.422;2022-08-27T03:26:23;94.03;;;50.47;;
4786;SDS011;62338;48.832;9.422;2022-08-27T03:28:26;93.63;;;48.83;;
4786;SDS011;62338;48.832;9.422;2022-08-27T03:30:32;110.67;;;53.70;;
4786;SDS011;62338;48.832;9.422;2022-08-27T03:32:33;99.30;;;54.27;;
4786;SDS011;62338;48.832;9.422;2022-08-27T03:34:35;103.53;;;55.47;;
4786;SDS011;62338;48.832;9.422;2022-08-27T03:36:38;96.63;;;53.40;;
4786;SDS011;62338;48.832;9.422;2022-08-27T03:38:40;100.90;;;55.77;;
4786;SDS011;62338;48.832;9.422;2022-08-27T03:40:41;105.63;;;57.83;;
4786;SDS011;62338;48.832;9.422;2022-08-27T03:42:44;102.73;;;54.53;;
4786;SDS011;62338;48.832;9.422;2022-08-27T03:44:46;109.80;;;57.00;;
4786;SDS011;62338;48.832;9.422;2022-08-27T03:46:49;101.67;;;55.60;;
4786;SDS011;62338;48.832;9.422;2022-08-27T03:48:51;101.57;;;56.20;;
4786;SDS011;62338;48.832;9.422;2022-08-27T03:50:57;102.90;;;53.73;;
4786;SDS011;62338;48.832;9.422;2022-08-27T03:53:00;103.10;;;54.07;;
4786;SDS011;62338;48.832;9.422;2022-08-27T03:55:02;113.20;;;56.10;;
4786;SDS011;62338;48.832;9.422;2022-08-27T03:57:06;124.57;;;57.10;;
4786;SDS011;62338;48.832;9.422;2022-08-27T03:59:09;103.37;;;55.50;;
4786;SDS011;62338;48.832;9.422;2022-08-27T04:01:10;99.63;;;52.03;;
4786;SDS011;62338;48.832;9.422;2022-08-27T04:03:12;102.50;;;53.40;;
4786;SDS011;62338;48.832;9.422;2022-08-27T04:05:14;88.53;;;51.30;;
4786;SDS011;62338;48.832;9.422;2022-08-27T04:07:18;86.17;;;50.57;;
4786;SDS011;62338;48.832;9.422;2022-08-27T04:09:20;81.53;;;47.50;;
4786;SDS011;62338;48.832;9.422;2022-08-27T04:11:21;90.60;;;52.00;;
4786;SDS011;62338;48.832;9.422;2022-08-27T04:13:24;91.60;;;52.07;;
4786;SDS011;62338;48.832;9.422;2022-08-27T04:15:26;103.10;;;51.30;;
4786;SDS011;62338;48.832;9.422;2022-08-27T04:17:27;99.27;;;50.90;;
4786;SDS011;62338;48.832;9.422;2022-08-27T04:19:29;95.50;;;51.73;;
4786;SDS011;62338;48.832;9.422;2022-08-27T04:21:34;97.83;;;50.00;;
4786;SDS011;62338;48.832;9.422;2022-08-27T04:23:37;98.40;;;52.67;;
4786;SDS011;62338;48.832;9.422;2022-08-27T04:25:39;93.73;;;52.57;;
4786;SDS011;62338;48.832;9.422;2022-08-27T04:27:43;97.77;;;51.70;;
4786;SDS011;62338;48.832;9.422;2022-08-27T04:29:45;91.57;;;52.07;;
4786;SDS011;62338;48.832;9.422;2022-08-27T04:31:48;100.40;;;52.83;;
4786;SDS011;62338;48.832;9.422;2022-08-27T04:33:50;92.17;;;52.07;;
4786;SDS011;62338;48.832;9.422;2022-08-27T04:35:57;103.70;;;53.77;;
4786;SDS011;62338;48.832;9.422;2022-08-27T04:38:03;101.07;;;49.53;;
4786;SDS011;62338;48.832;9.422;2022-08-27T04:40:05;103.83;;;53.57;;
4786;SDS011;62338;48.832;9.422;2022-08-27T04:42:07;112.83;;;53.47;;
4786;SDS011;62338;48.832;9.422;2022-08-27T04:44:09;109.93;;;52.80;;
4786;SDS011;62338;48.832;9.422;2022-08-27T04:46:12;97.10;;;52.37;;
4786;SDS011;62338;48.832;9.422;2022-08-27T04:48:15;108.30;;;51.33;;
4786;SDS011;62338;48.832;9.422;2022-08-27T04:50:19;109.67;;;50.70;;
4786;SDS011;62338;48.832;9.422;2022-08-27T04:52:21;114.93;;;54.43;;
4786;SDS011;62338;48.832;9.422;2022-08-27T04:54:23;114.97;;;50.63;;
4786;SDS011;62338;48.832;9.422;2022-08-27T04:56:33;103.37;;;52.40;;
4786;SDS011;62338;48.832;9.422;2022-08-27T04:58:37;105.33;;;52.23;;
4786;SDS011;62338;48.832;9.422;2022-08-27T05:00:40;109.20;;;53.90;;
4786;SDS011;62338;48.832;9.422;2022-08-27T05:02:43;107.50;;;50.90;;
4786;SDS011;62338;48.832;9.422;2022-08-27T05:04:45;99.30;;;54.03;;
4786;SDS011;62338;48.832;9.422;2022-08-27T05:06:47;104.93;;;52.27;;
4786;SDS011;62338;48.832;9.422;2022-08-27T05:08:49;104.43;;;52.13;;
4786;SDS011;62338;48.832;9.422;2022-08-27T05:10:53;102.57;;;49.90;;
4786;SDS011;62338;48.832;9.422;2022-08-27T05:12:55;95.97;;;51.00;;
4786;SDS011;62338;48.832;9.422;2022-08-27T05:15:00;105.20;;;54.10;;
4786;SDS011;62338;48.832;9.422;2022-08-27T05:17:02;101.87;;;52.30;;
4786;SDS011;62338;48.832;9.422;2022-08-27T05:19:04;108.67;;;52.00;;
4786;SDS011;62338;48.832;9.422;2022-08-27T05:21:08;95.27;;;50.07;;
4786;SDS011;62338;48.832;9.422;2022-08-27T05:23:18;98.37;;;52.20;;
4786;SDS011;62338;48.832;9.422;2022-08-27T05:25:21;103.87;;;52.60;;
4786;SDS011;62338;48.832;9.422;2022-08-27T05:27:23;101.03;;;54.47;;
4786;SDS011;62338;48.832;9.422;2022-08-27T05:29:26;100.87;;;50.97;;
4786;SDS011;62338;48.832;9.422;2022-08-27T05:31:28;104.17;;;50.07;;
4786;SDS011;62338;48.832;9.422;2022-08-27T05:33:30;101.53;;;51.90;;
4786;SDS011;62338;48.832;9.422;2022-08-27T05:35:42;98.23;;;51.40;;
4786;SDS011;62338;48.832;9.422;2022-08-27T05:37:46;84.90;;;49.30;;
4786;SDS011;62338;48.832;9.422;2022-08-27T05:39:48;95.50;;;50.80;;
4786;SDS011;62338;48.832;9.422;2022-08-27T05:41:50;91.27;;;49.87;;
4786;SDS011;62338;48.832;9.422;2022-08-27T05:43:53;81.07;;;48.93;;
4786;SDS011;62338;48.832;9.422;2022-08-27T05:46:02;83.03;;;48.40;;
4786;SDS011;62338;48.832;9.422;2022-08-27T05:48:09;96.50;;;50.97;;
4786;SDS011;62338;48.832;9.422;2022-08-27T05:50:12;83.47;;;50.00;;
4786;SDS011;62338;48.832;9.422;2022-08-27T05:52:14;74.43;;;47.87;;
4786;SDS011;62338;48.832;9.422;2022-08-27T05:54:16;79.63;;;49.53;;
4786;SDS011;62338;48.832;9.422;2022-08-27T05:56:21;83.00;;;49.17;;
4786;SDS011;62338;48.832;9.422;2022-08-27T05:58:26;86.20;;;49.13;;
4786;SDS011;62338;48.832;9.422;2022-08-27T06:00:46;75.10;;;47.93;;
4786;SDS011;62338;48.832;9.422;2022-08-27T06:03:10;73.33;;;46.80;;
4786;SDS011;62338;48.832;9.422;2022-08-27T06:05:13;80.67;;;46.53;;
4786;SDS011;62338;48.832;9.422;2022-08-27T06:07:15;102.17;;;50.10;;
4786;SDS011;62338;48.832;9.422;2022-08-27T06:09:18;80.33;;;47.20;;
4786;SDS011;62338;48.832;9.422;2022-08-27T06:11:25;80.50;;;46.07;;
4786;SDS011;62338;48.832;9.422;2022-08-27T06:13:28;80.63;;;46.47;;
4786;SDS011;62338;48.832;9.422;2022-08-27T06:15:30;82.83;;;47.00;;
4786;SDS011;62338;48.832;9.422;2022-08-27T06:17:32;79.90;;;48.10;;
4786;SDS011;62338;48.832;9.422;2022-08-27T06:19:34;68.23;;;44.20;;
4786;SDS011;62338;48.832;9.422;2022-08-27T06:21:36;94.97;;;47.87;;
4786;SDS011;62338;48.832;9.422;2022-08-27T06:23:41;76.83;;;47.40;;
4786;SDS011;62338;48.832;9.422;2022-08-27T06:25:43;76.27;;;47.13;;
4786;SDS011;62338;48.832;9.422;2022-08-27T06:27:46;78.50;;;47.27;;
4786;SDS011;62338;48.832;9.422;2022-08-27T06:29:48;78.70;;;48.63;;
4786;SDS011;62338;48.832;9.422;2022-08-27T06:31:50;82.63;;;49.23;;
4786;SDS011;62338;48.832;9.422;2022-08-27T06:33:53;71.87;;;44.47;;
4786;SDS011;62338;48.832;9.422;2022-08-27T06:36:08;84.37;;;46.57;;
4786;SDS011;62338;48.832;9.422;2022-08-27T06:38:12;71.63;;;48.03;;
4786;SDS011;62338;48.832;9.422;2022-08-27T06:40:14;77.53;;;47.47;;
4786;SDS011;62338;48.832;9.422;2022-08-27T06:42:16;71.93;;;45.53;;
4786;SDS011;62338;48.832;9.422;2022-08-27T06:44:19;70.03;;;47.33;;
4786;SDS011;62338;48.832;9.422;2022-08-27T06:46:22;72.73;;;44.40;;
4786;SDS011;62338;48.832;9.422;2022-08-27T06:48:27;75.97;;;47.20;;
4786;SDS011;62338;48.832;9.422;2022-08-27T06:50:40;70.77;;;45.80;;
4786;SDS011;62338;48.832;9.422;2022-08-27T06:52:42;76.87;;;47.07;;
4786;SDS011;62338;48.832;9.422;2022-08-27T06:54:44;66.10;;;45.37;;
4786;SDS011;62338;48.832;9.422;2022-08-27T06:56:46;66.43;;;43.87;;
4786;SDS011;62338;48.832;9.422;2022-08-27T06:58:51;68.83;;;44.57;;
4786;SDS011;62338;48.832;9.422;2022-08-27T07:00:55;70.53;;;44.10;;
4786;SDS011;62338;48.832;9.422;2022-08-27T07:02:57;73.60;;;47.13;;
4786;SDS011;62338;48.832;9.422;2022-08-27T07:04:59;69.43;;;45.43;;
4786;SDS011;62338;48.832;9.422;2022-08-27T07:07:01;65.93;;;44.77;;
4786;SDS011;62338;48.832;9.422;2022-08-27T07:09:04;73.13;;;46.33;;
4786;SDS011;62338;48.832;9.422;2022-08-27T07:11:07;70.13;;;45.50;;
4786;SDS011;62338;48.832;9.422;2022-08-27T07:13:11;69.97;;;43.83;;
4786;SDS011;62338;48.832;9.422;2022-08-27T07:15:14;68.40;;;46.20;;
4786;SDS011;62338;48.832;9.422;2022-08-27T07:17:17;76.47;;;47.70;;
4786;SDS011;62338;48.832;9.422;2022-08-27T07:19:19;68.63;;;45.87;;
4786;SDS011;62338;48.832;9.422;2022-08-27T07:21:22;65.33;;;43.07;;
4786;SDS011;62338;48.832;9.422;2022-08-27T07:23:25;71.00;;;44.47;;
4786;SDS011;62338;48.832;9.422;2022-08-27T07:25:27;72.67;;;47.17;;
4786;SDS011;62338;48.832;9.422;2022-08-27T07:27:29;80.30;;;46.93;;
4786;SDS011;62338;48.832;9.422;2022-08-27T07:29:31;72.90;;;50.10;;
4786;SDS011;62338;48.832;9.422;2022-08-27T07:31:33;74.97;;;48.60;;
4786;SDS011;62338;48.832;9.422;2022-08-27T07:33:39;72.53;;;46.70;;
4786;SDS011;62338;48.832;9.422;2022-08-27T07:35:52;72.67;;;46.37;;
4786;SDS011;62338;48.832;9.422;2022-08-27T07:37:54;74.13;;;48.47;;
4786;SDS011;62338;48.832;9.422;2022-08-27T07:39:56;72.17;;;46.67;;
4786;SDS011;62338;48.832;9.422;2022-08-27T07:41:58;75.53;;;45.90;;
4786;SDS011;62338;48.832;9.422;2022-08-27T07:44:19;76.27;;;47.10;;
4786;SDS011;62338;48.832;9.422;2022-08-27T07:46:34;76.57;;;46.80;;
4786;SDS011;62338;48.832;9.422;2022-08-27T07:48:41;69.50;;;46.17;;
4786;SDS011;62338;48.832;9.422;2022-08-27T07:50:43;70.20;;;46.37;;
4786;SDS011;62338;48.832;9.422;2022-08-27T07:52:45;68.40;;;43.83;;
4786;SDS011;62338;48.832;9.422;2022-08-27T07:54:47;66.97;;;47.13;;
4786;SDS011;62338;48.832;9.422;2022-08-27T07:56:48;79.57;;;47.70;;
4786;SDS011;62338;48.832;9.422;2022-08-27T07:58:56;73.50;;;46.40;;
4786;SDS011;62338;48.832;9.422;2022-08-27T08:00:58;67.73;;;44.60;;
4786;SDS011;62338;48.832;9.422;2022-08-27T08:03:01;79.37;;;46.70;;
4786;SDS011;62338;48.832;9.422;2022-08-27T08:05:04;76.90;;;46.27;;
4786;SDS011;62338;48.832;9.422;2022-08-27T08:07:06;72.00;;;46.63;;
4786;SDS011;62338;48.832;9.422;2022-08-27T08:09:08;75.47;;;44.60;;
4786;SDS011;62338;48.832;9.422;2022-08-27T08:11:12;76.87;;;46.90;;
4786;SDS011;62338;48.832;9.422;2022-08-27T08:13:17;76.73;;;45.27;;
4786;SDS011;62338;48.832;9.422;2022-08-27T08:15:20;72.90;;;45.17;;
4786;SDS011;62338;48.832;9.422;2022-08-27T08:17:22;68.63;;;44.50;;
4786;SDS011;62338;48.832;9.422;2022-08-27T08:19:25;65.67;;;45.53;;
4786;SDS011;62338;48.832;9.422;2022-08-27T08:21:27;67.50;;;45.50;;
4786;SDS011;62338;48.832;9.422;2022-08-27T08:23:30;70.57;;;44.37;;
4786;SDS011;62338;48.832;9.422;2022-08-27T08:25:33;70.60;;;43.87;;
4786;SDS011;62338;48.832;9.422;2022-08-27T08:27:39;71.70;;;44.73;;
4786;SDS011;62338;48.832;9.422;2022-08-27T08:29:42;73.80;;;46.00;;
4786;SDS011;62338;48.832;9.422;2022-08-27T08:31:44;69.40;;;45.23;;
4786;SDS011;62338;48.832;9.422;2022-08-27T08:33:50;75.33;;;45.13;;
4786;SDS011;62338;48.832;9.422;2022-08-27T08:35:53;64.50;;;44.03;;
4786;SDS011;62338;48.832;9.422;2022-08-27T08:37:55;54.83;;;40.27;;
4786;SDS011;62338;48.832;9.422;2022-08-27T08:39:56;66.07;;;40.67;;
4786;SDS011;62338;48.832;9.422;2022-08-27T08:42:00;61.30;;;39.00;;
4786;SDS011;62338;48.832;9.422;2022-08-27T08:44:07;54.47;;;38.90;;
4786;SDS011;62338;48.832;9.422;2022-08-27T08:46:11;55.63;;;34.50;;
4786;SDS011;62338;48.832;9.422;2022-08-27T08:48:39;55.37;;;37.37;;
4786;SDS011;62338;48.832;9.422;2022-08-27T08:51:00;58.30;;;38.90;;
4786;SDS011;62338;48.832;9.422;2022-08-27T08:53:17;71.47;;;40.20;;
4786;SDS011;62338;48.832;9.422;2022-08-27T08:55:36;88.40;;;46.00;;
4786;SDS011;62338;48.832;9.422;2022-08-27T08:57:53;108.33;;;45.90;;
4786;SDS011;62338;48.832;9.422;2022-08-27T09:00:13;104.87;;;33.60;;
4786;SDS011;62338;48.832;9.422;2022-08-27T09:02:15;110.83;;;31.03;;
4786;SDS011;62338;48.832;9.422;2022-08-27T09:04:18;87.00;;;27.83;;
4786;SDS011;62338;48.832;9.422;2022-08-27T09:08:45;141.67;;;30.20;;
4786;SDS011;62338;48.832;9.422;2022-08-27T09:10:58;62.13;;;23.50;;
4786;SDS011;62338;48.832;9.422;2022-08-27T09:13:17;79.87;;;22.50;;
4786;SDS011;62338;48.832;9.422;2022-08-27T09:15:26;128.43;;;23.70;;
4786;SDS011;62338;48.832;9.422;2022-08-27T09:17:31;52.47;;;19.30;;
4786;SDS011;62338;48.832;9.422;2022-08-27T09:19:36;77.63;;;22.50;;
4786;SDS011;62338;48.832;9.422;2022-08-27T09:21:50;114.23;;;22.83;;
4786;SDS011;62338;48.832;9.422;2022-08-27T09:24:13;57.37;;;20.00;;
4786;SDS011;62338;48.832;9.422;2022-08-27T09:26:23;27.50;;;17.13;;
4786;SDS011;62338;48.832;9.422;2022-08-27T09:28:28;32.17;;;19.23;;
4786;SDS011;62338;48.832;9.422;2022-08-27T09:30:49;68.33;;;28.00;;
4786;SDS011;62338;48.832;9.422;2022-08-27T09:32:55;84.40;;;30.73;;
4786;SDS011;62338;48.832;9.422;2022-08-27T09:35:06;176.33;;;37.10;;
4786;SDS011;62338;48.832;9.422;2022-08-27T09:37:11;256.93;;;40.10;;
4786;SDS011;62338;48.832;9.422;2022-08-27T09:39:17;78.37;;;33.37;;
4786;SDS011;62338;48.832;9.422;2022-08-27T09:41:24;99.33;;;34.57;;
4786;SDS011;62338;48.832;9.422;2022-08-27T09:43:29;221.20;;;36.70;;
4786;SDS011;62338;48.832;9.422;2022-08-27T09:45:34;118.47;;;30.80;;
4786;SDS011;62338;48.832;9.422;2022-08-27T09:50:04;88.20;;;25.30;;
4786;SDS011;62338;48.832;9.422;2022-08-27T09:52:08;55.70;;;27.90;;
4786;SDS011;62338;48.832;9.422;2022-08-27T09:54:29;80.67;;;29.50;;
4786;SDS011;62338;48.832;9.422;2022-08-27T09:56:39;135.63;;;29.77;;
4786;SDS011;62338;48.832;9.422;2022-08-27T09:58:50;62.70;;;27.90;;
4786;SDS011;62338;48.832;9.422;2022-08-27T10:01:14;63.17;;;29.10;;
4786;SDS011;62338;48.832;9.422;2022-08-27T10:03:19;116.93;;;31.10;;
4786;SDS011;62338;48.832;9.422;2022-08-27T10:05:26;141.17;;;34.20;;
4786;SDS011;62338;48.832;9.422;2022-08-27T10:09:43;47.30;;;28.33;;
4786;SDS011;62338;48.832;9.422;2022-08-27T10:11:58;79.87;;;31.70;;
4786;SDS011;62338;48.832;9.422;2022-08-27T10:14:39;58.77;;;30.33;;
4786;SDS011;62338;48.832;9.422;2022-08-27T10:21:33;92.27;;;34.60;;
4786;SDS011;62338;48.832;9.422;2022-08-27T10:26:11;79.97;;;36.00;;
4786;SDS011;62338;48.832;9.422;2022-08-27T10:46:35;77.77;;;33.80;;
4786;SDS011;62338;48.832;9.422;2022-08-27T10:48:52;51.70;;;34.27;;
4786;SDS011;62338;48.832;9.422;2022-08-27T10:51:10;51.20;;;32.77;;
4786;SDS011;62338;48.832;9.422;2022-08-27T10:55:32;60.17;;;34.40;;
4786;SDS011;62338;48.832;9.422;2022-08-27T11:00:03;49.30;;;29.67;;
4786;SDS011;62338;48.832;9.422;2022-08-27T11:04:42;80.13;;;32.83;;
4786;SDS011;62338;48.832;9.422;2022-08-27T11:09:10;58.17;;;32.27;;
4786;SDS011;62338;48.832;9.422;2022-08-27T11:14:04;56.10;;;35.67;;
4786;SDS011;62338;48.832;9.422;2022-08-27T11:16:14;49.33;;;33.03;;
4786;SDS011;62338;48.832;9.422;2022-08-27T11:18:22;51.00;;;33.37;;
4786;SDS011;62338;48.832;9.422;2022-08-27T11:20:47;85.60;;;36.97;;
4786;SDS011;62338;48.832;9.422;2022-08-27T11:22:56;52.63;;;35.47;;
4786;SDS011;62338;48.832;9.422;2022-08-27T11:27:31;66.50;;;39.73;;
4786;SDS011;62338;48.832;9.422;2022-08-27T11:30:20;154.93;;;43.70;;
4786;SDS011;62338;48.832;9.422;2022-08-27T11:34:48;97.67;;;42.83;;
4786;SDS011;62338;48.832;9.422;2022-08-27T11:44:11;229.90;;;48.33;;
4786;SDS011;62338;48.832;9.422;2022-08-27T11:46:20;133.17;;;57.50;;
4786;SDS011;62338;48.832;9.422;2022-08-27T11:48:27;114.63;;;44.60;;
4786;SDS011;62338;48.832;9.422;2022-08-27T11:50:33;119.17;;;46.10;;
4786;SDS011;62338;48.832;9.422;2022-08-27T11:52:37;71.43;;;42.87;;
4786;SDS011;62338;48.832;9.422;2022-08-27T11:55:10;89.27;;;42.00;;
4786;SDS011;62338;48.832;9.422;2022-08-27T12:01:30;100.80;;;39.50;;
4786;SDS011;62338;48.832;9.422;2022-08-27T12:03:33;64.90;;;40.40;;
4786;SDS011;62338;48.832;9.422;2022-08-27T12:05:42;68.67;;;40.17;;
4786;SDS011;62338;48.832;9.422;2022-08-27T12:07:54;106.97;;;40.97;;
4786;SDS011;62338;48.832;9.422;2022-08-27T12:12:21;88.20;;;42.10;;
4786;SDS011;62338;48.832;9.422;2022-08-27T12:14:47;55.50;;;36.00;;
4786;SDS011;62338;48.832;9.422;2022-08-27T12:17:06;55.67;;;36.93;;
4786;SDS011;62338;48.832;9.422;2022-08-27T12:28:27;477.43;;;43.90;;
4786;SDS011;62338;48.832;9.422;2022-08-27T12:30:36;155.17;;;36.40;;
4786;SDS011;62338;48.832;9.422;2022-08-27T12:32:42;614.63;;;50.50;;
4786;SDS011;62338;48.832;9.422;2022-08-27T12:34:51;171.47;;;39.73;;
4786;SDS011;62338;48.832;9.422;2022-08-27T12:37:04;62.67;;;37.57;;
4786;SDS011;62338;48.832;9.422;2022-08-27T12:39:11;228.00;;;42.40;;
4786;SDS011;62338;48.832;9.422;2022-08-27T12:41:23;226.00;;;42.23;;
4786;SDS011;62338;48.832;9.422;2022-08-27T12:43:26;150.33;;;41.10;;
4786;SDS011;62338;48.832;9.422;2022-08-27T12:45:30;83.17;;;39.30;;
4786;SDS011;62338;48.832;9.422;2022-08-27T12:47:41;58.00;;;38.57;;
4786;SDS011;62338;48.832;9.422;2022-08-27T12:51:56;59.73;;;22.40;;
4786;SDS011;62338;48.832;9.422;2022-08-27T13:04:08;26.27;;;17.93;;
4786;SDS011;62338;48.832;9.422;2022-08-27T13:08:34;74.43;;;23.47;;
4786;SDS011;62338;48.832;9.422;2022-08-27T13:10:36;60.10;;;24.60;;
4786;SDS011;62338;48.832;9.422;2022-08-27T13:12:38;78.53;;;28.30;;
4786;SDS011;62338;48.832;9.422;2022-08-27T13:14:42;101.83;;;30.53;;
4786;SDS011;62338;48.832;9.422;2022-08-27T13:16:48;65.43;;;32.10;;
4786;SDS011;62338;48.832;9.422;2022-08-27T13:19:03;52.07;;;29.87;;
4786;SDS011;62338;48.832;9.422;2022-08-27T13:21:16;994.50;;;66.10;;
4786;SDS011;62338;48.832;9.422;2022-08-27T13:23:20;677.57;;;41.83;;
4786;SDS011;62338;48.832;9.422;2022-08-27T13:25:25;735.60;;;44.97;;
4786;SDS011;62338;48.832;9.422;2022-08-27T13:27:31;452.07;;;39.50;;
4786;SDS011;62338;48.832;9.422;2022-08-27T13:29:35;54.50;;;29.40;;
4786;SDS011;62338;48.832;9.422;2022-08-27T13:31:38;58.13;;;28.40;;
4786;SDS011;62338;48.832;9.422;2022-08-27T13:33:40;30.97;;;24.27;;
4786;SDS011;62338;48.832;9.422;2022-08-27T13:35:43;46.67;;;23.13;;
4786;SDS011;62338;48.832;9.422;2022-08-27T13:37:48;34.43;;;22.43;;
4786;SDS011;62338;48.832;9.422;2022-08-27T13:39:54;29.43;;;21.80;;
4786;SDS011;62338;48.832;9.422;2022-08-27T13:41:58;38.60;;;20.07;;
4786;SDS011;62338;48.832;9.422;2022-08-27T13:44:06;20.90;;;17.10;;
4786;SDS011;62338;48.832;9.422;2022-08-27T13:46:11;20.27;;;14.83;;
4786;SDS011;62338;48.832;9.422;2022-08-27T13:48:19;16.63;;;12.10;;
4786;SDS011;62338;48.832;9.422;2022-08-27T13:50:25;17.60;;;13.63;;